KMUT

Muscatine Municipal Airport

Muscatine, Iowa, USA
METAR KMUT 160735Z AUTO 28015G22KT 10SM SCT022 SCT029 OVC060 05/M01 A2984 RMK AO2
Observed Flight Rules
Nov-16 @ 07:35 UTC (33 minutes ago) Visual Flight Rules
Wind Visibility Clouds
280° at 15 knots
 Gusting to 22 knots
10 miles
  • Scattered at 2,200' AGL
  • Scattered at 2,900' AGL
  • Overcast at 6,000' AGL
Temperatures Readings
Current 5°C / 41°F
Dewpoint -1°C / 30°F
Humidity 66%
Altimeter 29.84" Hg
Pressure 1010 hPa
Elevation 167
METAR KMUT 160735Z AUTO 28015G22KT 10SM SCT022 SCT029 OVC060 05/M01 A2984 RMK AO2
Observed Flight Rules
Nov-16 @ 07:35 UTC
(33 minutes ago)
VFR
Wind Visibility
280° at 15 knots
 Gusting to 22 knots
10 miles
Clouds
  • Scattered at 2,200' AGL
  • Scattered at 2,900' AGL
  • Overcast at 6,000' AGL
Temperature Dewpoint
5°C / 41°F -1°C / 30°F
Humidity Altimeter Pressure
66% 29.84" Hg 1010 hPa